createdAt,value
2022-12-28T00:00:57.907Z,972.82
2022-12-28T00:01:58.098Z,972.84
2022-12-28T00:02:57.817Z,972.81
2022-12-28T00:03:58.060Z,972.79
2022-12-28T00:04:57.728Z,972.74
2022-12-28T00:05:57.872Z,972.78
2022-12-28T00:06:57.876Z,972.74
2022-12-28T00:07:57.590Z,972.70
2022-12-28T00:08:57.715Z,972.76
2022-12-28T00:09:57.472Z,972.77
2022-12-28T00:11:08.150Z,972.74
2022-12-28T00:11:57.411Z,972.74
2022-12-28T00:12:57.516Z,972.71
2022-12-28T00:13:57.281Z,972.75
2022-12-28T00:14:57.728Z,972.69
2022-12-28T00:15:57.224Z,972.67
2022-12-28T00:16:57.342Z,972.68
2022-12-28T00:17:57.084Z,972.68
2022-12-28T00:18:57.365Z,972.63
2022-12-28T00:19:56.990Z,972.63
2022-12-28T00:20:57.164Z,972.59
2022-12-28T00:21:56.913Z,972.61
2022-12-28T00:22:56.970Z,972.67
2022-12-28T00:23:57.325Z,972.58
2022-12-28T00:24:56.984Z,972.65
2022-12-28T00:25:56.704Z,972.64
2022-12-28T00:26:57.038Z,972.64
2022-12-28T00:27:56.607Z,972.62
2022-12-28T00:29:03.638Z,972.60
2022-12-28T00:29:56.829Z,972.61
2022-12-28T00:30:56.668Z,972.59
2022-12-28T00:31:56.690Z,972.56
2022-12-28T00:32:56.357Z,972.50
2022-12-28T00:33:56.438Z,972.47
2022-12-28T00:34:56.291Z,972.46
2022-12-28T00:35:56.219Z,972.50
2022-12-28T00:37:11.144Z,972.49
2022-12-28T00:37:56.124Z,972.51
2022-12-28T00:38:56.271Z,972.51
2022-12-28T00:39:56.026Z,972.52
2022-12-28T00:40:55.975Z,972.50
2022-12-28T00:41:55.937Z,972.47
2022-12-28T00:42:55.990Z,972.50
2022-12-28T00:43:55.840Z,972.48
2022-12-28T00:44:55.910Z,972.50
2022-12-28T00:45:55.767Z,972.48
2022-12-28T00:46:55.683Z,972.48
2022-12-28T00:47:55.926Z,972.40
2022-12-28T00:48:55.693Z,972.41
2022-12-28T00:49:55.675Z,972.40
2022-12-28T00:50:55.516Z,972.37
2022-12-28T00:51:55.677Z,972.40
2022-12-28T00:52:55.392Z,972.34
2022-12-28T00:53:55.458Z,972.31
2022-12-28T00:54:55.304Z,972.28
2022-12-28T00:55:55.473Z,972.30
2022-12-28T00:56:55.200Z,972.31
2022-12-28T00:57:55.285Z,972.29
2022-12-28T00:58:55.106Z,972.32
2022-12-28T00:59:55.095Z,972.33
2022-12-28T01:00:55.131Z,972.26
2022-12-28T01:01:55.235Z,972.28
2022-12-28T01:02:54.956Z,972.23
2022-12-28T01:03:54.861Z,972.23
2022-12-28T01:04:54.810Z,972.26
2022-12-28T01:05:54.932Z,972.24
2022-12-28T01:06:54.780Z,972.27
2022-12-28T01:07:54.746Z,972.30
2022-12-28T01:08:54.626Z,972.29
2022-12-28T01:09:54.603Z,972.30
2022-12-28T01:10:54.563Z,972.33
2022-12-28T01:11:54.479Z,972.33
2022-12-28T01:12:54.578Z,972.36
2022-12-28T01:13:54.383Z,972.37
2022-12-28T01:14:54.388Z,972.42
2022-12-28T01:15:54.416Z,972.43
2022-12-28T01:16:54.320Z,972.39
2022-12-28T01:17:54.412Z,972.40
2022-12-28T01:18:54.464Z,972.42
2022-12-28T01:19:54.280Z,972.42
2022-12-28T01:20:54.048Z,972.40
2022-12-28T01:21:54.016Z,972.41
2022-12-28T01:22:54.032Z,972.38
2022-12-28T01:23:53.907Z,972.38
2022-12-28T01:24:54.057Z,972.37
2022-12-28T01:25:53.811Z,972.36
2022-12-28T01:26:53.858Z,972.36
2022-12-28T01:27:53.710Z,972.36
2022-12-28T01:28:53.871Z,972.34
2022-12-28T01:29:53.609Z,972.33
2022-12-28T01:30:53.898Z,972.30
2022-12-28T01:31:53.576Z,972.32
2022-12-28T01:32:53.467Z,972.33
2022-12-28T01:33:53.495Z,972.31
2022-12-28T01:34:53.550Z,972.34
2022-12-28T01:35:53.517Z,972.34
2022-12-28T01:36:53.275Z,972.30
2022-12-28T01:37:53.329Z,972.34
2022-12-28T01:38:53.338Z,972.35
2022-12-28T01:39:53.134Z,972.35
2022-12-28T01:40:53.143Z,972.35
2022-12-28T01:41:53.041Z,972.32
2022-12-28T01:42:53.164Z,972.37
2022-12-28T01:43:52.945Z,972.34
2022-12-28T01:44:52.891Z,972.32
2022-12-28T01:45:53.033Z,972.32
2022-12-28T01:46:53.031Z,972.32
2022-12-28T01:47:52.783Z,972.26
2022-12-28T01:48:52.701Z,972.25
2022-12-28T01:49:52.794Z,972.19
2022-12-28T01:50:52.601Z,972.16
2022-12-28T01:51:52.810Z,972.17
2022-12-28T01:52:52.508Z,972.14
2022-12-28T01:53:52.620Z,972.15
2022-12-28T01:54:52.416Z,972.11
2022-12-28T01:55:52.364Z,972.10
2022-12-28T01:56:52.332Z,972.15
2022-12-28T01:57:52.659Z,972.09
2022-12-28T01:58:52.225Z,972.14
2022-12-28T01:59:52.254Z,972.11
2022-12-28T02:00:52.179Z,972.08
2022-12-28T02:01:52.130Z,972.09
2022-12-28T02:02:52.173Z,972.04
2022-12-28T02:03:52.006Z,972.05
2022-12-28T02:04:52.087Z,972.01
2022-12-28T02:05:51.885Z,971.95
2022-12-28T02:06:52.103Z,971.90
2022-12-28T02:07:51.903Z,971.86
2022-12-28T02:08:51.748Z,971.84
2022-12-28T02:10:44.000Z,971.84
2022-12-28T02:10:51.643Z,971.85
2022-12-28T02:11:51.713Z,971.89
2022-12-28T02:12:51.642Z,971.85
2022-12-28T02:13:51.539Z,971.87
2022-12-28T02:14:51.449Z,971.84
2022-12-28T02:15:51.750Z,971.84
2022-12-28T02:16:51.493Z,971.81
2022-12-28T02:17:51.343Z,971.76
2022-12-28T02:18:51.353Z,971.76
2022-12-28T02:19:51.212Z,971.75
2022-12-28T02:20:51.360Z,971.75
2022-12-28T02:21:51.116Z,971.70
2022-12-28T02:22:51.401Z,971.69
2022-12-28T02:23:51.041Z,971.67
2022-12-28T02:25:12.169Z,971.67
2022-12-28T02:25:51.016Z,971.67
2022-12-28T02:26:51.286Z,971.69
2022-12-28T02:27:51.025Z,971.72
2022-12-28T02:28:50.775Z,971.70
2022-12-28T02:29:50.836Z,971.74
2022-12-28T02:30:50.705Z,971.79
2022-12-28T02:31:50.859Z,971.67
2022-12-28T02:32:50.613Z,971.67
2022-12-28T02:33:50.687Z,971.63
2022-12-28T02:34:50.511Z,971.67
2022-12-28T02:35:50.675Z,971.68
2022-12-28T02:36:50.392Z,971.70
2022-12-28T02:37:50.495Z,971.74
2022-12-28T02:38:50.548Z,971.71
2022-12-28T02:39:50.303Z,971.73
2022-12-28T02:40:50.205Z,971.71
2022-12-28T02:41:50.150Z,971.74
2022-12-28T02:42:50.323Z,971.76
2022-12-28T02:43:50.054Z,971.64
2022-12-28T02:44:50.126Z,971.63
2022-12-28T02:45:49.995Z,971.65
2022-12-28T02:46:50.137Z,971.63
2022-12-28T02:47:49.939Z,971.60
2022-12-28T02:48:49.807Z,971.63
2022-12-28T02:49:49.961Z,971.66
2022-12-28T02:50:49.717Z,971.63
2022-12-28T02:51:49.766Z,971.59
2022-12-28T02:52:49.636Z,971.60
2022-12-28T02:53:49.569Z,971.62
2022-12-28T02:54:49.792Z,971.66
2022-12-28T02:55:49.472Z,971.64
2022-12-28T02:56:49.600Z,971.61
2022-12-28T02:57:49.379Z,971.63
2022-12-28T02:58:49.405Z,971.60
2022-12-28T02:59:49.278Z,971.57
2022-12-28T03:00:49.424Z,971.55
2022-12-28T03:01:49.315Z,971.50
2022-12-28T03:02:49.502Z,971.52
2022-12-28T03:03:49.086Z,971.50
2022-12-28T03:04:49.041Z,971.53
2022-12-28T03:05:48.998Z,971.50
2022-12-28T03:06:49.060Z,971.48
2022-12-28T03:07:48.918Z,971.49
2022-12-28T03:08:49.073Z,971.45
2022-12-28T03:09:48.797Z,971.44
2022-12-28T03:10:48.749Z,971.44
2022-12-28T03:11:48.908Z,971.52
2022-12-28T03:12:48.667Z,971.51
2022-12-28T03:13:48.799Z,971.45
2022-12-28T03:14:49.678Z,971.51
2022-12-28T03:15:48.657Z,971.52
2022-12-28T03:16:48.464Z,971.53
2022-12-28T03:17:48.629Z,971.50
2022-12-28T03:18:48.365Z,971.47
2022-12-28T03:19:48.458Z,971.53
2022-12-28T03:20:48.279Z,971.46
2022-12-28T03:21:48.452Z,971.51
2022-12-28T03:22:48.177Z,971.45
2022-12-28T03:23:48.260Z,971.40
2022-12-28T03:24:48.077Z,971.40
2022-12-28T03:25:48.190Z,971.40
2022-12-28T03:26:48.229Z,971.39
2022-12-28T03:27:47.933Z,971.38
2022-12-28T03:28:47.877Z,971.37
2022-12-28T03:29:48.011Z,971.35
2022-12-28T03:30:47.839Z,971.37
2022-12-28T03:31:47.819Z,971.41
2022-12-28T03:32:47.736Z,971.36
2022-12-28T03:33:47.639Z,971.31
2022-12-28T03:34:47.829Z,971.33
2022-12-28T03:35:47.545Z,971.33
2022-12-28T03:36:47.643Z,971.32
2022-12-28T03:37:47.447Z,971.32
2022-12-28T03:38:47.654Z,971.31
2022-12-28T03:39:47.468Z,971.26
2022-12-28T03:40:47.306Z,971.25
2022-12-28T03:41:47.479Z,971.23
2022-12-28T03:42:47.206Z,971.19
2022-12-28T03:43:47.281Z,971.23
2022-12-28T03:44:47.338Z,971.18
2022-12-28T03:45:47.691Z,971.15
2022-12-28T03:46:47.138Z,971.18
2022-12-28T03:47:46.955Z,971.17
2022-12-28T03:48:47.123Z,971.10
2022-12-28T03:49:46.864Z,971.16
2022-12-28T03:50:46.922Z,971.10
2022-12-28T03:51:46.976Z,971.06
2022-12-28T03:52:46.950Z,971.04
2022-12-28T03:53:46.671Z,971.06
2022-12-28T03:54:46.755Z,971.08
2022-12-28T03:55:46.576Z,971.02
2022-12-28T03:56:46.994Z,971.01
2022-12-28T03:57:46.477Z,970.99
2022-12-28T03:58:46.569Z,971.00
2022-12-28T03:59:46.376Z,970.98
2022-12-28T04:00:46.588Z,971.02
2022-12-28T04:01:46.433Z,971.02
2022-12-28T04:02:46.358Z,971.05
2022-12-28T04:03:46.195Z,971.03
2022-12-28T04:04:46.210Z,971.01
2022-12-28T04:05:46.089Z,971.03
2022-12-28T04:06:46.220Z,971.02
2022-12-28T04:07:45.994Z,971.03
2022-12-28T04:08:46.288Z,971.04
2022-12-28T04:09:45.897Z,971.04
2022-12-28T04:10:46.044Z,971.01
2022-12-28T04:11:45.815Z,970.95
2022-12-28T04:12:46.880Z,970.96
2022-12-28T04:13:45.701Z,970.96
2022-12-28T04:14:45.679Z,970.97
2022-12-28T04:15:45.666Z,970.94
2022-12-28T04:16:45.718Z,970.96
2022-12-28T04:17:45.507Z,970.94
2022-12-28T04:18:45.698Z,970.93
2022-12-28T04:19:45.411Z,970.88
2022-12-28T04:20:45.558Z,970.90
2022-12-28T04:21:45.513Z,970.89
2022-12-28T04:22:45.268Z,970.89
2022-12-28T04:23:45.327Z,970.90
2022-12-28T04:24:45.173Z,970.79
2022-12-28T04:25:45.338Z,970.87
2022-12-28T04:26:45.349Z,970.79
2022-12-28T04:27:45.025Z,970.84
2022-12-28T04:28:45.173Z,970.78
2022-12-28T04:29:44.931Z,970.80
2022-12-28T04:30:44.965Z,970.80
2022-12-28T04:31:44.896Z,970.80
2022-12-28T04:32:44.801Z,970.80
2022-12-28T04:33:44.984Z,970.77
2022-12-28T04:34:48.422Z,970.76
2022-12-28T04:35:44.803Z,970.77
2022-12-28T04:36:44.591Z,970.75
2022-12-28T04:37:44.605Z,970.77
2022-12-28T04:38:44.821Z,970.75
2022-12-28T04:39:55.767Z,970.80
2022-12-28T04:40:44.399Z,970.74
2022-12-28T04:41:44.437Z,970.79
2022-12-28T04:42:44.312Z,970.70
2022-12-28T04:43:44.452Z,970.71
2022-12-28T04:44:44.462Z,970.72
2022-12-28T04:45:44.165Z,970.69
2022-12-28T04:46:44.332Z,970.68
2022-12-28T04:47:44.054Z,970.68
2022-12-28T04:48:44.079Z,970.68
2022-12-28T04:49:43.960Z,970.65
2022-12-28T04:50:44.147Z,970.63
2022-12-28T04:51:44.110Z,970.60
2022-12-28T04:52:43.822Z,970.64
2022-12-28T04:53:43.908Z,970.64
2022-12-28T04:54:43.721Z,970.64
2022-12-28T04:55:43.923Z,970.66
2022-12-28T04:56:43.629Z,970.62
2022-12-28T04:57:43.739Z,970.67
2022-12-28T04:58:43.532Z,970.65
2022-12-28T04:59:43.743Z,970.67
2022-12-28T05:00:43.449Z,970.69
2022-12-28T05:01:43.669Z,970.69
2022-12-28T05:02:46.318Z,970.72
2022-12-28T05:03:45.193Z,970.74
2022-12-28T05:04:43.238Z,970.76
2022-12-28T05:05:43.388Z,970.72
2022-12-28T05:06:43.135Z,970.73
2022-12-28T05:07:43.193Z,970.76
2022-12-28T05:08:43.036Z,970.77
2022-12-28T05:09:43.201Z,970.78
2022-12-28T05:10:44.082Z,970.76
2022-12-28T05:11:43.014Z,970.73
2022-12-28T05:12:42.847Z,970.73
2022-12-28T05:13:42.790Z,970.74
2022-12-28T05:14:42.772Z,970.73
2022-12-28T05:15:42.837Z,970.72
2022-12-28T05:16:42.694Z,970.68
2022-12-28T05:17:42.857Z,970.70
2022-12-28T05:18:42.550Z,970.73
2022-12-28T05:19:42.497Z,970.71
2022-12-28T05:20:42.720Z,970.72
2022-12-28T05:21:42.685Z,970.69
2022-12-28T05:22:42.365Z,970.69
2022-12-28T05:23:42.496Z,970.65
2022-12-28T05:24:42.257Z,970.66
2022-12-28T05:25:42.232Z,970.67
2022-12-28T05:26:42.303Z,970.66
2022-12-28T05:27:42.370Z,970.70
2022-12-28T05:28:42.325Z,970.66
2022-12-28T05:29:42.013Z,970.68
2022-12-28T05:30:42.129Z,970.71
2022-12-28T05:31:42.195Z,970.67
2022-12-28T05:32:41.871Z,970.70
2022-12-28T05:33:42.154Z,970.65
2022-12-28T05:34:41.778Z,970.62
2022-12-28T05:35:41.964Z,970.62
2022-12-28T05:36:41.697Z,970.64
2022-12-28T05:37:41.625Z,970.61
2022-12-28T05:38:41.786Z,970.64
2022-12-28T05:39:41.525Z,970.63
2022-12-28T05:40:41.588Z,970.68
2022-12-28T05:41:41.435Z,970.73
2022-12-28T05:42:45.227Z,970.72
2022-12-28T05:43:41.621Z,970.70
2022-12-28T05:44:41.292Z,970.74
2022-12-28T05:45:41.417Z,970.73
2022-12-28T05:46:41.215Z,970.70
2022-12-28T05:47:41.230Z,970.73
2022-12-28T05:48:41.294Z,970.72
2022-12-28T05:49:41.054Z,970.75
2022-12-28T05:50:41.250Z,970.72
2022-12-28T05:51:40.943Z,970.70
2022-12-28T05:52:41.065Z,970.72
2022-12-28T05:53:40.848Z,970.74
2022-12-28T05:54:41.076Z,970.79
2022-12-28T05:55:40.744Z,970.74
2022-12-28T05:56:40.884Z,970.77
2022-12-28T05:57:40.653Z,970.77
2022-12-28T05:58:40.700Z,970.72
2022-12-28T05:59:40.549Z,970.77
2022-12-28T06:03:47.078Z,970.82
2022-12-28T06:04:46.692Z,970.78
2022-12-28T06:05:46.902Z,970.72
2022-12-28T06:06:46.580Z,970.71
2022-12-28T06:07:46.754Z,970.66
2022-12-28T06:08:46.707Z,970.64
2022-12-28T06:09:46.433Z,970.64
2022-12-28T06:10:46.518Z,970.61
2022-12-28T06:11:46.338Z,970.59
2022-12-28T06:12:46.288Z,970.58
2022-12-28T06:13:46.231Z,970.61
2022-12-28T06:14:46.774Z,970.61
2022-12-28T06:15:46.139Z,970.57
2022-12-28T06:16:46.468Z,970.52
2022-12-28T06:17:46.029Z,970.53
2022-12-28T06:18:45.982Z,970.50
2022-12-28T06:19:46.175Z,970.48
2022-12-28T06:20:45.917Z,970.47
2022-12-28T06:21:46.007Z,970.49
2022-12-28T06:22:45.787Z,970.47
2022-12-28T06:23:46.008Z,970.44
2022-12-28T06:24:45.818Z,970.47
2022-12-28T06:25:45.636Z,970.49
2022-12-28T06:26:46.017Z,970.45
2022-12-28T06:27:45.544Z,970.43
2022-12-28T06:28:45.635Z,970.45
2022-12-28T06:29:45.443Z,970.45
2022-12-28T06:30:50.525Z,970.43
2022-12-28T06:31:45.515Z,970.41
2022-12-28T06:32:45.328Z,970.43
2022-12-28T06:33:45.666Z,970.43
2022-12-28T06:34:45.217Z,970.42
2022-12-28T06:35:45.267Z,970.43
2022-12-28T06:36:45.117Z,970.43
2022-12-28T06:37:45.284Z,970.42
2022-12-28T06:38:45.006Z,970.38
2022-12-28T06:39:45.100Z,970.41
2022-12-28T06:41:12.199Z,970.42
2022-12-28T06:41:45.105Z,970.44
2022-12-28T06:42:44.910Z,970.45
2022-12-28T06:43:44.759Z,970.44
2022-12-28T06:44:45.008Z,970.36
2022-12-28T06:45:44.664Z,970.35
2022-12-28T06:46:44.947Z,970.28
2022-12-28T06:47:44.561Z,970.30
2022-12-28T06:48:44.796Z,970.25
2022-12-28T06:49:44.758Z,970.20
2022-12-28T06:50:44.417Z,970.17
2022-12-28T06:51:44.582Z,970.25
2022-12-28T06:52:44.321Z,970.22
2022-12-28T06:53:44.483Z,970.20
2022-12-28T06:54:44.539Z,970.20
2022-12-28T06:55:44.287Z,970.21
2022-12-28T06:56:44.128Z,970.19
2022-12-28T06:57:44.300Z,970.24
2022-12-28T06:58:44.035Z,970.20
2022-12-28T06:59:44.138Z,970.22
2022-12-28T07:00:43.951Z,970.22
2022-12-28T07:01:44.818Z,970.23
2022-12-28T07:02:43.954Z,970.21
2022-12-28T07:03:43.935Z,970.16
2022-12-28T07:04:43.736Z,970.20
2022-12-28T07:05:43.950Z,970.22
2022-12-28T07:06:43.668Z,970.22
2022-12-28T07:07:43.758Z,970.22
2022-12-28T07:08:43.536Z,970.26
2022-12-28T07:09:43.779Z,970.28
2022-12-28T07:10:43.432Z,970.35
2022-12-28T07:11:44.639Z,970.33
2022-12-28T07:12:43.341Z,970.32
2022-12-28T07:13:43.402Z,970.30
2022-12-28T07:14:43.253Z,970.33
2022-12-28T07:15:43.408Z,970.27
2022-12-28T07:16:43.141Z,970.25
2022-12-28T07:17:43.267Z,970.27
2022-12-28T07:18:43.077Z,970.25
2022-12-28T07:19:43.234Z,970.29
2022-12-28T07:20:43.089Z,970.29
2022-12-28T07:21:43.044Z,970.28
2022-12-28T07:22:42.853Z,970.24
2022-12-28T07:23:42.808Z,970.23
2022-12-28T07:24:42.768Z,970.27
2022-12-28T07:25:42.862Z,970.27
2022-12-28T07:26:42.661Z,970.26
2022-12-28T07:27:42.886Z,970.30
2022-12-28T07:28:42.581Z,970.30
2022-12-28T07:29:42.741Z,970.20
2022-12-28T07:30:42.748Z,970.17
2022-12-28T07:31:45.622Z,970.20
2022-12-28T07:32:42.507Z,970.24
2022-12-28T07:33:42.316Z,970.22
2022-12-28T07:34:42.732Z,970.17
2022-12-28T07:35:42.257Z,970.17
2022-12-28T07:36:42.348Z,970.14
2022-12-28T07:37:42.140Z,970.13
2022-12-28T07:38:42.344Z,970.11
2022-12-28T07:39:42.029Z,970.14
2022-12-28T07:40:42.171Z,970.12
2022-12-28T07:41:42.214Z,970.11
2022-12-28T07:42:42.180Z,970.08
2022-12-28T07:43:41.834Z,970.07
2022-12-28T07:44:47.126Z,970.05
2022-12-28T07:45:41.774Z,970.11
2022-12-28T07:46:41.795Z,970.11
2022-12-28T07:47:41.645Z,970.05
2022-12-28T07:48:42.012Z,970.04
2022-12-28T07:49:41.540Z,970.05
2022-12-28T07:50:41.617Z,970.12
2022-12-28T07:51:41.446Z,970.11
2022-12-28T07:52:41.632Z,970.17
2022-12-28T07:53:41.370Z,970.14
2022-12-28T07:54:41.444Z,970.08
2022-12-28T07:55:41.260Z,970.13
2022-12-28T07:57:33.681Z,970.07
2022-12-28T07:58:33.486Z,970.08
2022-12-28T07:59:33.699Z,970.10
2022-12-28T08:00:33.547Z,970.13
2022-12-28T08:01:33.618Z,970.12
2022-12-28T08:02:33.326Z,970.18
2022-12-28T08:03:33.600Z,970.15
2022-12-28T08:04:33.321Z,970.16
2022-12-28T08:05:33.481Z,970.16
2022-12-28T08:06:33.339Z,970.11
2022-12-28T08:07:33.060Z,970.10
2022-12-28T08:08:33.146Z,970.05
2022-12-28T08:09:32.981Z,970.06
2022-12-28T08:10:33.164Z,970.03
2022-12-28T08:11:32.864Z,970.04
2022-12-28T08:12:32.973Z,970.05
2022-12-28T08:13:32.786Z,970.08
2022-12-28T08:14:32.988Z,970.05
2022-12-28T08:15:32.887Z,970.09
2022-12-28T08:16:32.802Z,970.06
2022-12-28T08:17:32.569Z,970.05
2022-12-28T08:18:32.716Z,970.06
2022-12-28T08:19:32.476Z,970.04
2022-12-28T08:20:32.734Z,970.03
2022-12-28T08:21:32.416Z,970.07
2022-12-28T08:22:32.540Z,970.04
2022-12-28T08:23:32.304Z,970.07
2022-12-28T08:24:32.344Z,970.03
2022-12-28T08:25:32.195Z,970.02
2022-12-28T08:26:32.357Z,970.00
2022-12-28T08:27:38.172Z,970.06
2022-12-28T08:28:32.168Z,970.09
2022-12-28T08:29:32.181Z,970.07
2022-12-28T08:30:31.942Z,970.05
2022-12-28T08:31:32.322Z,970.07
2022-12-28T08:32:31.845Z,970.07
2022-12-28T08:33:31.999Z,970.08
2022-12-28T08:34:31.749Z,970.05
2022-12-28T08:35:31.705Z,970.07
2022-12-28T08:36:31.833Z,970.04
2022-12-28T08:37:31.616Z,969.98
2022-12-28T08:38:31.826Z,970.00
2022-12-28T08:39:31.693Z,969.95
2022-12-28T08:40:31.677Z,970.00
2022-12-28T08:41:31.412Z,969.96
2022-12-28T08:42:31.704Z,969.98
2022-12-28T08:43:31.323Z,970.01
2022-12-28T08:44:31.462Z,969.99
2022-12-28T08:45:31.348Z,970.01
2022-12-28T08:46:31.436Z,970.02
2022-12-28T08:47:31.139Z,970.13
2022-12-28T08:48:31.290Z,970.12
2022-12-28T08:49:31.038Z,970.16
2022-12-28T08:50:31.881Z,970.16
2022-12-28T08:51:31.159Z,970.16
2022-12-28T08:52:30.933Z,970.13
2022-12-28T08:53:30.848Z,970.13
2022-12-28T08:54:31.135Z,970.15
2022-12-28T08:55:30.753Z,970.18
2022-12-28T08:56:30.949Z,970.16
2022-12-28T08:57:30.655Z,970.19
2022-12-28T08:58:30.616Z,970.17
2022-12-28T08:59:30.563Z,970.15
2022-12-28T09:00:30.767Z,970.13
2022-12-28T09:01:30.750Z,970.12
2022-12-28T09:02:30.631Z,970.11
2022-12-28T09:03:30.389Z,970.09
2022-12-28T09:04:30.325Z,970.02
2022-12-28T09:05:34.505Z,969.99
2022-12-28T09:06:30.254Z,970.03
2022-12-28T09:07:30.431Z,969.97
2022-12-28T09:08:30.131Z,969.97
2022-12-28T09:09:30.220Z,970.04
2022-12-28T09:10:30.230Z,970.01
2022-12-28T09:11:30.000Z,970.03
2022-12-28T09:12:30.236Z,970.05
2022-12-28T09:13:29.937Z,970.01
2022-12-28T09:14:30.251Z,970.02
2022-12-28T09:15:29.812Z,970.01
2022-12-28T09:16:29.805Z,970.00
2022-12-28T09:17:29.862Z,970.00
2022-12-28T09:18:29.678Z,969.98
2022-12-28T09:19:29.880Z,969.99
2022-12-28T09:20:29.608Z,969.97
2022-12-28T09:21:29.689Z,969.95
2022-12-28T09:22:29.481Z,969.98
2022-12-28T09:23:29.700Z,969.91
2022-12-28T09:24:29.390Z,969.92
2022-12-28T09:25:29.516Z,969.87
2022-12-28T09:26:29.576Z,969.90
2022-12-28T09:27:29.538Z,969.88
2022-12-28T09:28:29.207Z,969.89
2022-12-28T09:29:29.345Z,969.89
2022-12-28T09:30:29.115Z,969.92
2022-12-28T09:31:29.439Z,969.89
2022-12-28T09:32:29.065Z,969.87
2022-12-28T09:33:30.189Z,969.88
2022-12-28T09:34:37.628Z,969.86
2022-12-28T09:35:29.196Z,969.85
2022-12-28T09:36:28.836Z,969.83
2022-12-28T09:37:28.997Z,969.83
2022-12-28T09:38:28.753Z,969.79
2022-12-28T09:39:29.165Z,969.80
2022-12-28T09:40:28.662Z,969.83
2022-12-28T09:41:29.021Z,969.79
2022-12-28T09:42:28.565Z,969.81
2022-12-28T09:43:28.825Z,969.82
2022-12-28T09:44:28.503Z,969.82
2022-12-28T09:45:28.426Z,969.81
2022-12-28T09:46:28.384Z,969.79
2022-12-28T09:47:28.662Z,969.79
2022-12-28T09:48:28.285Z,969.79
2022-12-28T09:49:28.362Z,969.74
2022-12-28T09:50:28.579Z,969.73
2022-12-28T09:51:28.152Z,969.70
2022-12-28T09:52:28.099Z,969.63
2022-12-28T09:53:28.283Z,969.66
2022-12-28T09:54:28.008Z,969.63
2022-12-28T09:55:27.988Z,969.59
2022-12-28T09:56:27.941Z,969.61
2022-12-28T09:57:27.872Z,969.61
2022-12-28T09:58:28.015Z,969.56
2022-12-28T09:59:27.782Z,969.54
2022-12-28T10:00:27.823Z,969.50
2022-12-28T10:01:27.874Z,969.51
2022-12-28T10:02:28.163Z,969.50
2022-12-28T10:03:27.627Z,969.48
2022-12-28T10:04:27.555Z,969.55
2022-12-28T10:05:27.654Z,969.50
2022-12-28T10:06:27.468Z,969.45
2022-12-28T10:07:27.569Z,969.55
2022-12-28T10:08:27.644Z,969.49
2022-12-28T10:09:27.328Z,969.61
2022-12-28T10:10:27.391Z,969.59
2022-12-28T10:11:27.242Z,969.61
2022-12-28T10:12:27.407Z,969.68
2022-12-28T10:13:53.663Z,969.72
2022-12-28T10:14:27.216Z,969.70
2022-12-28T10:15:27.069Z,969.67
2022-12-28T10:16:27.260Z,969.62
2022-12-28T10:17:26.983Z,969.61
2022-12-28T10:18:27.238Z,969.64
2022-12-28T10:19:26.923Z,969.65
2022-12-28T10:20:27.053Z,969.66
2022-12-28T10:21:32.358Z,969.66
2022-12-28T10:22:26.866Z,969.65
2022-12-28T10:23:26.747Z,969.69
2022-12-28T10:24:31.673Z,969.62
2022-12-28T10:25:26.679Z,969.58
2022-12-28T10:26:26.682Z,969.53
2022-12-28T10:27:26.697Z,969.54
2022-12-28T10:28:26.511Z,969.51
2022-12-28T10:29:26.508Z,969.51
2022-12-28T10:30:26.427Z,969.44
2022-12-28T10:31:26.777Z,969.46
2022-12-28T10:32:26.343Z,969.44
2022-12-28T10:33:26.298Z,969.42
2022-12-28T10:34:26.328Z,969.40
2022-12-28T10:35:26.220Z,969.42
2022-12-28T10:36:31.427Z,969.39
2022-12-28T10:37:26.163Z,969.30
2022-12-28T10:38:26.367Z,969.29
2022-12-28T10:39:26.046Z,969.27
2022-12-28T10:40:26.173Z,969.23
2022-12-28T10:41:25.950Z,969.24
2022-12-28T10:42:26.021Z,969.20
2022-12-28T10:43:25.892Z,969.14
2022-12-28T10:44:41.569Z,969.19
2022-12-28T10:45:25.846Z,969.12
2022-12-28T10:46:25.870Z,969.06
2022-12-28T10:47:25.694Z,969.08
2022-12-28T10:48:25.819Z,969.04
2022-12-28T10:49:25.647Z,969.06
2022-12-28T10:50:37.064Z,969.03
2022-12-28T10:51:25.652Z,969.00
2022-12-28T10:52:25.663Z,969.00
2022-12-28T10:53:25.444Z,969.01
2022-12-28T10:54:28.027Z,969.01
2022-12-28T10:55:25.345Z,969.03
2022-12-28T10:56:25.338Z,968.94
2022-12-28T10:57:25.348Z,968.96
2022-12-28T10:58:30.409Z,968.95
2022-12-28T10:59:25.186Z,968.97
2022-12-28T11:00:25.308Z,968.99
2022-12-28T11:01:25.240Z,968.98
2022-12-28T11:02:25.181Z,969.00
2022-12-28T11:03:25.076Z,968.98
2022-12-28T11:04:25.137Z,968.98
2022-12-28T11:05:24.928Z,968.94
2022-12-28T11:06:27.581Z,968.95
2022-12-28T11:07:24.853Z,968.97
2022-12-28T11:08:24.807Z,968.95
2022-12-28T11:09:24.809Z,969.03
2022-12-28T11:10:24.973Z,969.02
2022-12-28T11:11:24.686Z,968.94
2022-12-28T11:12:24.769Z,968.92
2022-12-28T11:13:24.825Z,968.91
2022-12-28T11:14:24.652Z,968.93
2022-12-28T11:15:24.528Z,968.88
2022-12-28T11:16:24.655Z,968.88
2022-12-28T11:17:24.451Z,968.81
2022-12-28T11:18:24.510Z,968.81
2022-12-28T11:19:24.561Z,968.80
2022-12-28T11:20:24.337Z,968.79
2022-12-28T11:21:24.538Z,968.81
2022-12-28T11:22:24.258Z,968.82
2022-12-28T11:23:24.334Z,968.83
2022-12-28T11:24:24.201Z,968.75
2022-12-28T11:25:24.347Z,968.73
2022-12-28T11:26:24.094Z,968.72
2022-12-28T11:27:24.156Z,968.69
2022-12-28T11:28:24.021Z,968.71
2022-12-28T11:29:24.383Z,968.72
2022-12-28T11:30:23.969Z,968.67
2022-12-28T11:31:24.241Z,968.65
2022-12-28T11:32:23.862Z,968.75
2022-12-28T11:33:23.999Z,968.60
2022-12-28T11:34:23.790Z,968.60
2022-12-28T11:35:23.811Z,968.58
2022-12-28T11:36:23.704Z,968.54
2022-12-28T11:37:23.820Z,968.54
2022-12-28T11:38:23.877Z,968.55
2022-12-28T11:39:23.645Z,968.48
2022-12-28T11:40:23.554Z,968.50
2022-12-28T11:41:24.784Z,968.47
2022-12-28T11:42:40.298Z,968.45
2022-12-28T11:43:23.452Z,968.41
2022-12-28T11:44:23.414Z,968.37
2022-12-28T11:45:23.489Z,968.38
2022-12-28T11:46:23.320Z,968.39
2022-12-28T11:47:28.036Z,968.35
2022-12-28T11:48:23.239Z,968.35
2022-12-28T11:49:23.200Z,968.33
2022-12-28T11:50:23.168Z,968.33
2022-12-28T11:51:23.315Z,968.40
2022-12-28T11:52:23.090Z,968.32
2022-12-28T11:53:23.128Z,968.33
2022-12-28T11:54:23.017Z,968.33
2022-12-28T11:55:23.138Z,968.29
2022-12-28T11:56:22.946Z,968.31
2022-12-28T11:57:23.146Z,968.30
2022-12-28T11:58:22.894Z,968.23
2022-12-28T11:59:23.175Z,968.33
2022-12-28T12:00:23.616Z,968.25
2022-12-28T12:01:22.817Z,968.18
2022-12-28T12:02:22.753Z,968.18
2022-12-28T12:03:22.851Z,968.16
2022-12-28T12:04:22.640Z,968.11
2022-12-28T12:05:22.800Z,968.03
2022-12-28T12:06:28.619Z,968.01
2022-12-28T12:07:27.465Z,967.99
2022-12-28T12:08:22.488Z,967.96
2022-12-28T12:09:22.630Z,967.95
2022-12-28T12:10:22.400Z,968.06
2022-12-28T12:11:22.640Z,968.03
2022-12-28T12:12:22.326Z,968.02
2022-12-28T12:13:22.295Z,967.98
2022-12-28T12:14:22.463Z,967.95
2022-12-28T12:15:22.238Z,967.95
2022-12-28T12:16:22.391Z,967.94
2022-12-28T12:17:22.207Z,967.89
2022-12-28T12:18:22.183Z,967.85
2022-12-28T12:19:22.057Z,967.81
2022-12-28T12:20:22.221Z,967.76
2022-12-28T12:21:22.001Z,967.68
2022-12-28T12:22:22.016Z,967.75
2022-12-28T12:23:21.894Z,967.69
2022-12-28T12:24:22.016Z,967.68
2022-12-28T12:25:21.822Z,967.63
2022-12-28T12:26:22.038Z,967.52
2022-12-28T12:27:21.741Z,967.51
2022-12-28T12:28:21.841Z,967.48
2022-12-28T12:29:21.686Z,967.51
2022-12-28T12:30:21.863Z,967.50
2022-12-28T12:31:22.286Z,967.53
2022-12-28T12:32:21.672Z,967.52